createdAt,value
2023-03-04T14:16:55.208Z,79.8
2023-03-04T14:19:30.316Z,79.8
2023-03-04T14:22:05.383Z,79.8
2023-03-04T14:24:40.429Z,80.1
2023-03-04T14:36:36.500Z,79.5
2023-03-04T14:39:09.598Z,79.1
2023-03-04T14:41:42.595Z,79.1
2023-03-04T14:44:15.620Z,79
2023-03-04T14:47:00.861Z,78.8
2023-03-04T14:49:39.106Z,78.5
2023-03-04T14:52:12.221Z,78.1
2023-03-04T14:54:45.204Z,78
2023-03-04T14:57:20.003Z,77.9
2023-03-04T14:59:54.130Z,77.9
2023-03-04T15:02:27.055Z,77.9
2023-03-04T15:05:00.136Z,78
2023-03-04T15:07:33.115Z,78.6
2023-03-04T15:10:06.127Z,78.6
2023-03-04T15:12:39.155Z,78.6
2023-03-04T15:18:45.860Z,79.2
2023-03-04T15:21:19.100Z,79.4
2023-03-04T15:23:52.410Z,79.6
2023-03-04T15:28:50.678Z,79.7
2023-03-04T15:31:23.733Z,79.9
2023-03-04T15:33:56.645Z,80
2023-03-04T15:36:29.620Z,79.7
2023-03-04T15:43:21.867Z,79.6
2023-03-04T15:45:55.929Z,79.6
2023-03-04T15:53:02.126Z,79.5
2023-03-04T15:55:46.143Z,79.4
2023-03-04T16:02:25.484Z,79.2
2023-03-04T16:05:09.651Z,78.8
2023-03-04T16:07:53.599Z,78.7
2023-03-04T16:10:37.720Z,78.6
2023-03-04T16:19:33.599Z,78.6
2023-03-04T16:31:00.198Z,78.7
2023-03-04T16:33:44.322Z,78.4
2023-03-04T16:36:28.557Z,78.2
2023-03-04T16:44:00.198Z,78
2023-03-04T16:46:44.972Z,77.7
2023-03-04T16:49:29.511Z,77.6
2023-03-04T16:52:13.974Z,77.5
2023-03-04T16:54:58.420Z,77.2
2023-03-04T16:57:42.840Z,77.2
2023-03-04T17:00:27.235Z,77.1
2023-03-04T17:07:50.800Z,76.8
2023-03-04T17:10:34.891Z,76.5
2023-03-04T17:21:40.006Z,76.4
2023-03-04T17:24:24.081Z,76.1
2023-03-04T17:32:06.353Z,76.1
2023-03-04T17:38:06.859Z,75.9
2023-03-04T17:48:10.154Z,75.9
2023-03-04T17:56:21.578Z,75.5
2023-03-04T17:59:05.703Z,75.7
2023-03-04T18:01:54.042Z,75.7
2023-03-04T18:04:41.034Z,75.9
2023-03-04T18:07:24.951Z,76.2
2023-03-04T18:10:09.166Z,76
2023-03-04T18:12:53.110Z,76.1
2023-03-04T18:15:37.354Z,76.2
2023-03-04T18:18:21.391Z,76
2023-03-04T18:21:05.489Z,76.1
2023-03-04T18:23:49.476Z,76.2
2023-03-04T18:26:33.526Z,76.1
2023-03-04T18:29:17.386Z,76.1
2023-03-04T18:32:01.762Z,76.1
2023-03-04T18:34:45.874Z,76.2
2023-03-04T18:37:30.014Z,76.1
2023-03-04T18:40:14.038Z,75.9
2023-03-04T18:42:58.212Z,75.9
2023-03-04T18:47:59.727Z,75.7
2023-03-04T18:50:46.188Z,76
2023-03-04T18:53:33.171Z,76.1
2023-03-04T18:56:20.065Z,76.2
2023-03-04T18:59:06.826Z,76.1
2023-03-04T19:01:53.524Z,76.1
2023-03-04T19:04:39.903Z,76.1
2023-03-04T19:07:26.179Z,76.2
2023-03-04T19:10:12.450Z,76.1
2023-03-04T19:12:58.749Z,76.1
2023-03-04T19:15:44.876Z,76.2
2023-03-04T19:18:31.109Z,76.3
2023-03-04T19:21:17.304Z,76.3
2023-03-04T19:24:03.576Z,76.4
2023-03-04T19:26:49.721Z,76.5
2023-03-04T19:29:36.168Z,76.5
2023-03-04T19:32:22.478Z,76.5
2023-03-04T19:35:08.829Z,76.5
2023-03-04T19:37:55.143Z,76.5
2023-03-04T19:40:41.495Z,76.5
2023-03-04T19:43:27.844Z,76.5
2023-03-04T19:46:14.476Z,76.5
2023-03-04T19:49:00.851Z,76.5
2023-03-04T19:51:47.045Z,76.6
2023-03-04T19:54:33.347Z,76.5
2023-03-04T19:57:19.641Z,76.7
2023-03-04T20:00:05.984Z,76.8
2023-03-04T20:02:54.646Z,76.9
2023-03-04T20:05:40.711Z,76.9
2023-03-04T20:08:27.095Z,76.9
2023-03-04T20:11:13.235Z,76.9
2023-03-04T20:13:59.651Z,77.1
2023-03-04T20:16:45.857Z,77.3
2023-03-04T20:19:32.123Z,77.2
2023-03-04T20:22:18.472Z,77.3
2023-03-04T20:25:04.723Z,77.5
2023-03-04T20:27:51.172Z,77.5
2023-03-04T20:30:37.381Z,77.5
2023-03-04T20:33:23.742Z,77.6
2023-03-04T20:36:10.118Z,78
2023-03-04T20:39:08.247Z,77.9
2023-03-04T20:42:00.836Z,78.5
2023-03-04T20:44:47.084Z,78.7
2023-03-04T20:47:33.384Z,78.5
2023-03-04T20:50:19.605Z,78.5
2023-03-04T20:53:05.904Z,78.5
2023-03-04T20:55:52.120Z,78.7
2023-03-04T20:58:38.318Z,78.9
2023-03-04T21:01:24.720Z,78.9
2023-03-04T21:04:11.497Z,78.8
2023-03-04T21:06:57.977Z,78.9
2023-03-04T21:09:44.289Z,78.9
2023-03-04T21:12:30.632Z,79
2023-03-04T21:15:17.051Z,79
2023-03-04T21:18:03.378Z,79
2023-03-04T21:20:49.728Z,79.1
2023-03-04T21:23:38.834Z,79.1
2023-03-04T21:26:25.180Z,79.3
2023-03-04T21:29:11.402Z,79.3
2023-03-04T21:31:57.657Z,79.4
2023-03-04T21:34:55.054Z,79.5
2023-03-04T21:37:41.362Z,79.7
2023-03-04T21:40:27.674Z,79.7
2023-03-04T21:43:13.955Z,79.7
2023-03-04T21:46:00.052Z,80
2023-03-04T21:48:46.357Z,80
2023-03-04T21:51:32.414Z,80
2023-03-04T21:54:18.708Z,80.1
2023-03-04T21:57:05.024Z,80.2
2023-03-04T21:59:51.351Z,80.2
2023-03-04T22:02:37.702Z,80.2
2023-03-04T22:05:24.055Z,80.2
2023-03-04T22:08:10.300Z,80.3
2023-03-04T22:10:56.603Z,80.3
2023-03-04T22:13:42.842Z,80.4
2023-03-04T22:16:29.234Z,80.4
2023-03-04T22:19:25.659Z,80.5
2023-03-04T22:22:11.864Z,80.5
2023-03-04T22:24:59.852Z,80.5
2023-03-04T22:27:46.095Z,80.7
2023-03-04T22:30:32.396Z,80.7
2023-03-04T22:33:18.673Z,80.7
2023-03-04T22:36:04.863Z,81
2023-03-04T22:38:51.222Z,80.8
2023-03-04T22:41:37.413Z,80.9
2023-03-04T22:44:23.667Z,80.9
2023-03-04T22:47:09.994Z,80.9
2023-03-04T22:49:56.329Z,81
2023-03-04T22:52:42.472Z,81
2023-03-04T22:55:28.606Z,81
2023-03-04T22:58:14.698Z,81.1
2023-03-04T23:01:01.036Z,81.2
2023-03-04T23:03:47.578Z,81.2
2023-03-04T23:06:33.942Z,81.5
2023-03-04T23:09:20.157Z,81.7
2023-03-04T23:12:06.379Z,81.6
2023-03-04T23:14:52.698Z,81.7
2023-03-04T23:17:39.024Z,81.8
2023-03-04T23:20:25.258Z,81.9
2023-03-04T23:23:11.487Z,82
2023-03-04T23:25:57.630Z,82.2
2023-03-04T23:28:44.064Z,82.2
2023-03-04T23:31:30.313Z,82.2
2023-03-04T23:34:16.567Z,82.2
2023-03-04T23:37:02.859Z,82.4
2023-03-04T23:39:49.312Z,82.3
2023-03-04T23:42:35.410Z,82.8
2023-03-04T23:45:21.655Z,82.5
2023-03-04T23:48:07.918Z,82.7
2023-03-04T23:50:54.083Z,83.2
2023-03-04T23:53:40.258Z,83.2
2023-03-04T23:56:26.714Z,83.3
2023-03-04T23:59:13.032Z,83.2
